Concordia, KS

11:49 PM CDT on August 23, 2016 (GMT -0500)
Wind Energy Composite Lab | | Change Station

Elev 1457 ft 39.56 °N, 97.66 °W | Updated 19 seconds ago

Clear
Clear
77.5 °F
Feels Like 79 °F
N
16.1
Wind Variable Wind from SE
Gusts 18.0 mph

Today
High -- | Low -- °F
--% Chance of Precip.
Yesterday
High -- | Low -- °F
Precip. -- in
Pressure 29.81 in
Visibility 10.0 miles
Clouds Clear
Heat Index 79 °F
Dew Point 72 °F
Humidity 84%
Rainfall 0.86 in
Snow Depth Not available.
6:51 AM 8:14 PM
Waning Gibbous, 61% visible
METAR KCNK 240355Z AUTO 16011KT 10SM CLR 24/22 A2986 RMK AO2 SLP094 T02440217
Pressure 29.81 in
Visibility 10.0 miles
Clouds Clear
Heat Index 79 °F
Dew Point 72 °F
Humidity 84%
Rainfall 0.86 in
Snow Depth Not available.
6:51 AM 8:14 PM
Waning Gibbous, 61% visible
METAR KCNK 240355Z AUTO 16011KT 10SM CLR 24/22 A2986 RMK AO2 SLP094 T02440217

10-Day Weather Forecast

Almanac

Astronomy

Aug. 23, 2016 Rise Set
Actual Time
Civil Twilight
Nautical Twilight
Astronomical Twilight
Moon
Length of Visible Light
Length of Day
Tomorrow will be .
, % of the Moon is Illuminated

Today's Extremes

State Highs State Lows

Community

WunderPhotos

Upload Photos

1,934,554 photos uploaded!

WunderBlog® & News

Nearby

Air Quality

  Air Quality AQ Index Pollutant
Not available.

Snow Depth

Station Depth Elevation

Earthquake Activity

City Distance Mag. Time & Date
Minimum magnitude displayed is 2.5.

Coastal Water Temperatures

Place Temperature

Stations

Nearby Weather Stations

Station Location Temp. Windchill Dew Point Humidity Wind Precip. Elev Updated Type
                   

Watches & Warnings

There are currently no watches in effect.